Flight Track Log - Related Links

Times and Time Zones

All times are in EDT time to prevent confusion due to time zone crossing. See the DAL2352 flight status page for this flight to view local times or setup timezone preferences in your user account.

Time Position Orientation Groundspeed Altitude Reporting Facility
EDT Latitude Longitude Course Direction KTS MPH feet Rate Location/Type
Tue 06:30:51 AM 42.7694 -73.8089 180° South 159 183 1,400  Level Boston Center
Tue 06:31:52 AM 42.8253 -73.8386 339° North 244 281 2,400 2,178 Climbing Boston Center
Tue 06:33:00 AM 42.4958 -74.1560 200° South  Level Estimated
Tue 06:33:17 AM 42.8739 -73.9500 301° West 409 471 6,700  Level Boston Center
Tue 06:34:00 AM 42.4111 -74.2734 198° South  Level Estimated
Tue 06:34:17 AM 42.8667 -74.0322 263° West 303 349 8,600  Level Boston Center
Tue 06:35:00 AM 42.3262 -74.3904 180° South  Level Estimated
Tue 06:35:17 AM 42.7889 -74.0725 201° Southwest 234 269 10,700  Level Boston Center
Tue 06:36:00 AM 42.2413 -74.5072 180° South  Level Estimated
Tue 06:36:17 AM 42.6889 -74.0669 178° South 268 308 11,700  Level Boston Center
Tue 06:37:17 AM 42.5639 -74.0525 175° South 399 459 13,900 2,850 Climbing Boston Center
Tue 06:38:17 AM 42.4661 -74.0444 177° South 399 459 17,400 2,800 Climbing Boston Center
Tue 06:39:17 AM 42.3661 -74.0447 180° South 389 448 19,500 1,400 Climbing Boston Center
Tue 06:40:17 AM 42.2558 -74.0361 177° South 384 442 20,200 750 Climbing Boston Center
Tue 06:41:17 AM 42.1347 -74.0442 183° South 403 464 21,000 900 Climbing Boston Center
Tue 06:42:17 AM 42.0097 -74.0522 183° South 435 501 22,000 1,050 Climbing Boston Center
Tue 06:43:17 AM 41.8797 -74.0908 192° South 459 528 23,100 1,350 Climbing Boston Center
Tue 06:44:17 AM 41.7433 -74.1653 202° Southwest 474 545 24,700 1,547 Climbing Boston Center
Tue 06:46:27 AM 41.4769 -74.3153 203° Southwest 479 551 28,000 1,476 Climbing New York Center
Tue 06:47:28 AM 41.3583 -74.3864 204° Southwest 479 551 29,400 1,190 Climbing New York Center
Tue 06:48:28 AM 41.2442 -74.4408 200° South 479 551 30,400 1,041 Climbing New York Center
Tue 06:49:29 AM 41.1233 -74.5061 202° Southwest 479 551 31,500 942 Climbing New York Center
Tue 06:50:29 AM 41.0161 -74.5992 213° Southwest 473 544 32,300 694 Climbing New York Center
Tue 06:51:30 AM 40.9250 -74.7119 223° Southwest 462 532 32,900 605 Climbing New York Center
Tue 06:52:28 AM 40.8336 -74.8275 224° Southwest 462 532 33,500 559 Climbing New York Center
Tue 06:53:28 AM 40.7381 -74.9394 222° Southwest 457 526 34,000 248 Climbing New York Center
Tue 06:54:29 AM 40.6467 -75.0489 222° Southwest 457 526 34,000  Level New York Center
Tue 06:55:29 AM 40.5528 -75.1658 223° Southwest 457 526 34,000 -50 Level New York Center
Tue 06:56:29 AM 40.4633 -75.2719 222° Southwest 457 526 33,900  Descending New York Center
Tue 06:57:27 AM 40.4242 -75.4222 251° West 442 509 34,000  Climbing New York Center
Tue 06:58:28 AM 40.4150 -75.5961 266° West 427 491 33,900  Descending New York Center
Tue 06:59:27 AM 40.3494 -75.7222 236° Southwest 427 491 34,000 50 Climbing New York Center
Tue 07:00:27 AM 40.2414 -75.8122 212° Southwest 426 490 34,000 -50 Level New York Center
Tue 07:01:28 AM 40.1569 -75.9339 228° Southwest 444 511 33,900  Descending New York Center
Tue 07:02:28 AM 40.0761 -76.0608 230° Southwest 457 526 34,000 50 Climbing New York Center
Tue 07:03:29 AM 39.9994 -76.1878 232° Southwest 457 526 34,000  Level New York Center
Tue 07:04:30 AM 39.9164 -76.3167 230° Southwest 463 533 34,000  Level New York Center
Tue 07:05:27 AM 39.8375 -76.4403 230° Southwest 458 527 34,000  Level New York Center
Tue 07:06:28 AM 39.7608 -76.5611 230° Southwest 458 527 34,000  Level New York Center
Tue 07:07:28 AM 39.6839 -76.6842 231° Southwest 452 520 34,000  Level New York Center
Tue 07:08:55 AM 39.5717 -76.8569 230° Southwest 433 498 34,000  Level Washington Center
Tue 07:09:56 AM 39.4911 -76.9792 230° Southwest 433 498 34,000  Level Washington Center
Tue 07:10:54 AM 39.3939 -77.0875 221° Southwest 445 512 34,000  Level Washington Center
Tue 07:11:55 AM 39.2967 -77.1900 219° Southwest 460 529 34,000  Level Washington Center
Tue 07:12:56 AM 39.1994 -77.2897 218° Southwest 460 529 34,000  Level Washington Center
Tue 07:13:56 AM 39.1022 -77.3917 219° Southwest 455 524 34,000  Level Washington Center
Tue 07:14:53 AM 39.0047 -77.4933 219° Southwest 455 524 34,000  Level Washington Center
Tue 07:15:54 AM 38.9156 -77.5872 219° Southwest 463 533 34,000  Level Washington Center
Tue 07:16:55 AM 38.8053 -77.7014 219° Southwest 463 533 34,000  Level Washington Center
Tue 07:17:55 AM 38.7119 -77.7944 218° Southwest 475 547 34,000  Level Washington Center
Tue 07:18:56 AM 38.6203 -77.8981 221° Southwest 469 540 34,000  Level Washington Center
Tue 07:19:56 AM 38.5447 -78.0258 233° Southwest 457 526 34,000  Level Washington Center
Tue 07:20:54 AM 38.4711 -78.1561 234° Southwest 457 526 34,000  Level Washington Center
Tue 07:21:54 AM 38.3975 -78.2806 233° Southwest 457 526 34,000  Level Washington Center
Tue 07:22:55 AM 38.3217 -78.4103 233° Southwest 457 526 34,000  Level Washington Center
Tue 07:23:54 AM 38.2431 -78.5500 234° Southwest 457 526 34,000  Level Washington Center
Tue 07:24:54 AM 38.1714 -78.6661 232° Southwest 457 526 34,000  Level Washington Center
Tue 07:25:55 AM 38.0972 -78.7922 233° Southwest 457 526 34,000  Level Washington Center
Tue 07:26:56 AM 38.0186 -78.9208 232° Southwest 457 526 34,000  Level Washington Center
Tue 07:27:54 AM 37.9333 -79.0619 233° Southwest 457 526 34,000  Level Washington Center
Tue 07:28:54 AM 37.8483 -79.1869 229° Southwest 462 532 34,000  Level Washington Center
Tue 07:29:55 AM 37.7611 -79.3089 228° Southwest 467 537 34,000  Level Washington Center
Tue 07:30:55 AM 37.6697 -79.4303 226° Southwest 481 554 34,000  Level Washington Center
Tue 07:31:56 AM 37.5911 -79.5389 228° Southwest 481 554 34,000  Level Washington Center
Tue 07:32:53 AM 37.4947 -79.6728 228° Southwest 481 554 34,000  Level Washington Center
Tue 07:33:55 AM 37.4050 -79.7958 227° Southwest 479 551 34,000  Level Washington Center
Tue 07:34:56 AM 37.3172 -79.9139 227° Southwest 479 551 34,000  Level Washington Center
Tue 07:35:54 AM 37.2383 -80.0217 227° Southwest 479 551 34,000  Level Washington Center
Tue 07:37:12 AM 37.1156 -80.1867 227° Southwest 470 541 34,000  Level Atlanta Center
Tue 07:38:12 AM 37.0275 -80.3056 227° Southwest 460 529 34,000  Level Atlanta Center
Tue 07:39:12 AM 36.9492 -80.4078 226° Southwest 460 529 34,000  Level Atlanta Center
Tue 07:40:12 AM 36.8631 -80.5233 227° Southwest 460 529 34,000  Level Atlanta Center
Tue 07:41:12 AM 36.7744 -80.6414 227° Southwest 460 529 34,000  Level Atlanta Center
Tue 07:42:12 AM 36.6900 -80.7511 226° Southwest 452 520 34,000  Level Atlanta Center
Tue 07:43:12 AM 36.6033 -80.8683 227° Southwest 452 520 34,000  Level Atlanta Center
Tue 07:44:12 AM 36.5167 -80.9828 227° Southwest 459 528 34,000  Level Atlanta Center
Tue 07:45:12 AM 36.4275 -81.0972 226° Southwest 459 528 34,000  Level Atlanta Center
Tue 07:46:12 AM 36.3325 -81.2244 227° Southwest 459 528 34,000  Level Atlanta Center
Tue 07:47:12 AM 36.2456 -81.3408 227° Southwest 459 528 34,000  Level Atlanta Center
Tue 07:48:12 AM 36.1561 -81.4542 226° Southwest 464 534 34,000  Level Atlanta Center
Tue 07:49:12 AM 36.0708 -81.5650 226° Southwest 451 519 34,000  Level Atlanta Center
Tue 07:50:12 AM 35.9794 -81.6858 227° Southwest 462 532 34,000  Level Atlanta Center
Tue 07:51:12 AM 35.8939 -81.8008 227° Southwest 462 532 34,000  Level Atlanta Center
Tue 07:52:12 AM 35.8061 -81.9136 226° Southwest 462 532 34,000  Level Atlanta Center
Tue 07:53:13 AM 35.7206 -82.0258 227° Southwest 452 520 34,000  Level Atlanta Center
Tue 07:54:12 AM 35.6306 -82.1378 225° Southwest 458 527 34,000  Level Atlanta Center
Tue 07:55:12 AM 35.5425 -82.2494 226° Southwest 458 527 34,000 -450 Level Atlanta Center
Tue 07:56:12 AM 35.4522 -82.3611 225° Southwest 458 527 33,100 -1,350 Descending Atlanta Center
Tue 07:57:12 AM 35.3639 -82.4725 226° Southwest 458 527 31,300 -1,500 Descending Atlanta Center
Tue 07:58:12 AM 35.2819 -82.5733 225° Southwest 463 533 30,100 -1,750 Descending Atlanta Center
Tue 07:59:12 AM 35.1914 -82.6842 225° Southwest 463 533 27,800 -1,650 Descending Atlanta Center
Tue 08:00:12 AM 35.0944 -82.7950 223° Southwest 468 539 26,800 -1,100 Descending Atlanta Center
Tue 08:01:12 AM 35.0014 -82.8928 221° Southwest 468 539 25,600 -1,300 Descending Atlanta Center
Tue 08:02:12 AM 34.9167 -82.9850 222° Southwest 444 511 24,200 -800 Descending Atlanta Center
Tue 08:03:12 AM 34.8319 -83.0722 220° Southwest 413 475 24,000 -100 Descending Atlanta Center
Tue 08:04:12 AM 34.7447 -83.1567 219° Southwest 402 463 24,000 -50 Level Atlanta Center
Tue 08:05:12 AM 34.6536 -83.2558 222° Southwest 423 487 23,900 -700 Descending Atlanta Center
Tue 08:06:12 AM 34.5644 -83.3503 221° Southwest 429 494 22,600 -1,750 Descending Atlanta Center
Tue 08:07:12 AM 34.4692 -83.4492 221° Southwest 421 484 20,400 -2,150 Descending Atlanta Center
Tue 08:08:12 AM 34.3858 -83.5353 220° Southwest 409 471 18,300 -2,000 Descending Atlanta Center
Tue 08:09:12 AM 34.3069 -83.6189 221° Southwest 402 463 16,400 -1,900 Descending Atlanta Center
Tue 08:10:12 AM 34.2300 -83.6972 220° Southwest 385 443 14,500 -1,900 Descending Atlanta Center
Tue 08:11:12 AM 34.1550 -83.7753 221° Southwest 371 427 12,600 -1,250 Descending Atlanta Center
Tue 08:12:12 AM 34.0864 -83.8456 220° Southwest 348 400 12,000 -700 Descending Atlanta Center
Tue 08:13:12 AM 34.0258 -83.9108 222° Southwest 310 357 11,200 -1,311 Descending Atlanta Center
Tue 08:14:11 AM 33.9667 -83.9667 218° Southwest 288 331 9,400 -1,109 Descending Atlanta TRACON
Tue 08:15:11 AM 33.8833 -83.9667 180° South 287 330 9,000 -368 Descending Atlanta TRACON
Tue 08:16:05 AM 33.8167 -83.9500 168° South 236 272 8,700 -737 Descending Atlanta TRACON
Tue 08:17:05 AM 33.7667 -83.9500 180° South 201 231 7,600 -895 Descending Atlanta TRACON
Tue 08:17:59 AM 33.7167 -83.9500 180° South 200 230 7,000 -278 Descending Atlanta TRACON
Tue 08:18:53 AM 33.6667 -83.9333 164° South 192 221 7,100 53 Climbing Atlanta TRACON
Tue 08:19:53 AM 33.6333 -83.9833 231° Southwest 193 222 7,100 -105 Level Atlanta TRACON
Tue 08:20:47 AM 33.6333 -84.0500 270° West 196 226 6,900 -684 Descending Atlanta TRACON
Tue 08:21:47 AM 33.6333 -84.1167 270° West 191 220 5,800 -947 Descending Atlanta TRACON
Tue 08:22:41 AM 33.6333 -84.1667 270° West 181 208 5,100 -778 Descending Atlanta TRACON

Login

Don't have an account? Register now (free) for customized features, flight alerts, and more!